createdAt,value
2018-08-11T00:01:17.149Z,18.06
2018-08-11T00:03:45.538Z,18.10
2018-08-11T00:06:13.928Z,18.13
2018-08-11T00:08:42.317Z,18.18
2018-08-11T00:11:10.697Z,18.21
2018-08-11T00:13:39.106Z,18.27
2018-08-11T00:16:07.491Z,18.30
2018-08-11T00:18:35.885Z,18.35
2018-08-11T00:21:04.270Z,18.40
2018-08-11T00:23:32.669Z,18.45
2018-08-11T00:26:01.109Z,18.50
2018-08-11T00:28:29.506Z,18.56
2018-08-11T00:30:57.875Z,18.60
2018-08-11T00:33:26.265Z,18.62
2018-08-11T00:35:54.661Z,18.65
2018-08-11T00:38:23.070Z,18.67
2018-08-11T00:40:51.448Z,18.67
2018-08-11T00:43:19.850Z,18.65
2018-08-11T00:45:48.227Z,18.66
2018-08-11T00:48:16.622Z,18.65
2018-08-11T00:50:44.985Z,18.65
2018-08-11T00:53:13.386Z,18.64
2018-08-11T00:55:41.767Z,18.66
2018-08-11T00:58:10.157Z,18.66
2018-08-11T01:00:38.534Z,18.67
2018-08-11T01:03:06.926Z,18.69
2018-08-11T01:05:35.304Z,18.69
2018-08-11T01:08:03.698Z,18.70
2018-08-11T01:10:32.068Z,18.70
2018-08-11T01:13:00.481Z,18.70
2018-08-11T01:15:28.852Z,18.70
2018-08-11T01:17:57.265Z,18.69
2018-08-11T01:20:25.637Z,18.66
2018-08-11T01:22:54.033Z,18.65
2018-08-11T01:25:22.402Z,18.66
2018-08-11T01:27:50.797Z,18.67
2018-08-11T01:30:21.490Z,18.68
2018-08-11T01:32:49.906Z,18.69
2018-08-11T01:35:18.298Z,18.69
2018-08-11T01:37:47.162Z,18.72
2018-08-11T01:40:16.213Z,18.71
2018-08-11T01:42:45.766Z,18.74
2018-08-11T01:45:14.939Z,18.73
2018-08-11T01:47:43.498Z,18.74
2018-08-11T01:50:13.229Z,18.74
2018-08-11T01:52:42.867Z,18.75
2018-08-11T01:55:13.167Z,18.75
2018-08-11T01:57:41.846Z,18.72
2018-08-11T02:00:12.122Z,18.76
2018-08-11T02:02:40.989Z,18.76
2018-08-11T02:05:10.376Z,18.77
2018-08-11T02:07:39.803Z,18.78
2018-08-11T02:10:11.170Z,18.77
2018-08-11T02:12:39.735Z,18.76
2018-08-11T02:15:09.866Z,18.76
2018-08-11T02:17:38.258Z,18.74
2018-08-11T02:20:08.966Z,18.71
2018-08-11T02:22:37.349Z,18.69
2018-08-11T02:25:06.851Z,18.67
2018-08-11T02:27:35.218Z,18.64
2018-08-11T02:30:03.650Z,18.61
2018-08-11T02:32:32.059Z,18.59
2018-08-11T02:35:00.470Z,18.56
2018-08-11T02:37:28.838Z,18.51
2018-08-11T02:39:57.240Z,18.47
2018-08-11T02:42:25.630Z,18.43
2018-08-11T02:44:54.031Z,18.40
2018-08-11T02:47:22.412Z,18.38
2018-08-11T02:49:51.156Z,18.34
2018-08-11T02:52:19.538Z,18.32
2018-08-11T02:54:47.951Z,18.30
2018-08-11T02:57:16.327Z,18.30
2018-08-11T02:59:44.730Z,18.27
2018-08-11T03:02:13.098Z,18.26
2018-08-11T03:04:41.502Z,18.25
2018-08-11T03:07:09.884Z,18.23
2018-08-11T03:09:38.286Z,18.23
2018-08-11T03:12:06.790Z,18.23
2018-08-11T03:14:35.214Z,18.22
2018-08-11T03:17:03.599Z,18.23
2018-08-11T03:19:31.999Z,18.22
2018-08-11T03:22:00.379Z,18.22
2018-08-11T03:24:28.802Z,18.23
2018-08-11T03:26:57.166Z,18.22
2018-08-11T03:29:25.571Z,18.25
2018-08-11T03:31:53.955Z,18.25
2018-08-11T03:34:22.355Z,18.26
2018-08-11T03:36:50.723Z,18.26
2018-08-11T03:39:19.125Z,18.26
2018-08-11T03:41:47.505Z,18.27
2018-08-11T03:44:15.919Z,18.28
2018-08-11T03:46:44.286Z,18.29
2018-08-11T03:49:12.682Z,18.31
2018-08-11T03:51:41.050Z,18.31
2018-08-11T03:54:09.456Z,18.33
2018-08-11T03:56:37.854Z,18.37
2018-08-11T03:59:06.735Z,18.38
2018-08-11T04:01:35.106Z,18.41
2018-08-11T04:04:03.512Z,18.44
2018-08-11T04:06:31.918Z,18.47
2018-08-11T04:09:00.302Z,18.48
2018-08-11T04:11:28.679Z,18.50
2018-08-11T04:13:57.072Z,18.53
2018-08-11T04:16:25.471Z,18.55
2018-08-11T04:18:53.842Z,18.60
2018-08-11T04:21:22.249Z,18.64
2018-08-11T04:23:50.646Z,18.69
2018-08-11T04:26:19.034Z,18.75
2018-08-11T04:28:47.412Z,18.80
2018-08-11T04:31:15.838Z,18.85
2018-08-11T04:33:44.210Z,18.89
2018-08-11T04:36:12.615Z,18.92
2018-08-11T04:38:40.982Z,18.96
2018-08-11T04:41:09.582Z,18.99
2018-08-11T04:43:37.960Z,19.02
2018-08-11T04:46:06.356Z,19.05
2018-08-11T04:48:34.726Z,19.07
2018-08-11T04:51:03.139Z,19.08
2018-08-11T04:53:31.514Z,19.11
2018-08-11T04:55:59.907Z,19.12
2018-08-11T04:58:28.282Z,19.14
2018-08-11T05:00:56.684Z,19.15
2018-08-11T05:03:25.070Z,19.16
2018-08-11T05:05:53.746Z,19.19
2018-08-11T05:08:22.163Z,19.20
2018-08-11T05:10:50.562Z,19.23
2018-08-11T05:13:18.962Z,19.23
2018-08-11T05:15:47.358Z,19.26
2018-08-11T05:18:15.738Z,19.30
2018-08-11T05:20:44.137Z,19.33
2018-08-11T05:23:12.510Z,19.36
2018-08-11T05:25:41.082Z,19.39
2018-08-11T05:28:09.463Z,19.43
2018-08-11T05:30:37.864Z,19.47
2018-08-11T05:33:06.455Z,19.50
2018-08-11T05:35:34.851Z,19.54
2018-08-11T05:38:03.367Z,19.58
2018-08-11T05:40:33.410Z,19.64
2018-08-11T05:43:01.831Z,19.69
2018-08-11T05:45:30.263Z,19.73
2018-08-11T05:47:58.635Z,19.78
2018-08-11T05:50:27.039Z,19.81
2018-08-11T05:52:55.450Z,19.87
2018-08-11T05:55:23.859Z,19.91
2018-08-11T05:57:52.230Z,19.94
2018-08-11T06:00:20.635Z,19.99
2018-08-11T06:02:49.015Z,20.04
2018-08-11T06:05:17.410Z,20.08
2018-08-11T06:07:45.791Z,20.15
2018-08-11T06:10:14.190Z,20.19
2018-08-11T06:12:42.558Z,20.27
2018-08-11T06:15:10.967Z,20.34
2018-08-11T06:17:39.361Z,20.42
2018-08-11T06:20:08.780Z,20.50
2018-08-11T06:22:37.192Z,20.59
2018-08-11T06:25:07.346Z,20.70
2018-08-11T06:27:35.751Z,20.78
2018-08-11T06:30:05.110Z,20.86
2018-08-11T06:32:33.517Z,20.95
2018-08-11T06:35:01.886Z,21.03
2018-08-11T06:37:30.283Z,21.06
2018-08-11T06:39:58.655Z,21.10
2018-08-11T06:42:27.057Z,21.17
2018-08-11T06:44:55.444Z,21.21
2018-08-11T06:47:23.843Z,21.26
2018-08-11T06:49:52.208Z,21.33
2018-08-11T06:52:20.611Z,21.40
2018-08-11T06:54:48.999Z,21.50
2018-08-11T06:57:17.393Z,21.55
2018-08-11T06:59:45.807Z,21.62
2018-08-11T07:02:14.215Z,21.66
2018-08-11T07:04:42.602Z,21.67
2018-08-11T07:07:11.007Z,21.69
2018-08-11T07:09:39.391Z,21.70
2018-08-11T07:12:07.869Z,21.73
2018-08-11T07:14:36.268Z,21.75
2018-08-11T07:17:04.670Z,21.75
2018-08-11T07:19:33.038Z,21.78
2018-08-11T07:22:01.434Z,21.84
2018-08-11T07:24:29.804Z,21.91
2018-08-11T07:26:58.191Z,21.99
2018-08-11T07:29:26.566Z,22.10
2018-08-11T07:31:54.957Z,22.21
2018-08-11T07:34:23.326Z,22.32
2018-08-11T07:36:51.760Z,22.39
2018-08-11T07:39:20.154Z,22.41
2018-08-11T07:41:48.575Z,22.43
2018-08-11T07:44:16.970Z,22.44
2018-08-11T07:46:45.366Z,22.45
2018-08-11T07:49:13.759Z,22.44
2018-08-11T07:51:42.165Z,22.43
2018-08-11T07:54:10.539Z,22.47
2018-08-11T07:56:38.950Z,22.52
2018-08-11T07:59:07.530Z,22.55
2018-08-11T08:01:35.975Z,22.57
2018-08-11T08:04:04.363Z,22.60
2018-08-11T08:06:32.814Z,22.60
2018-08-11T08:09:01.191Z,22.59
2018-08-11T08:11:29.582Z,22.56
2018-08-11T08:13:57.977Z,22.55
2018-08-11T08:16:26.379Z,22.55
2018-08-11T08:18:54.759Z,22.55
2018-08-11T08:21:23.130Z,22.57
2018-08-11T08:23:51.539Z,22.62
2018-08-11T08:26:19.996Z,22.66
2018-08-11T08:28:48.354Z,22.73
2018-08-11T08:31:16.722Z,22.79
2018-08-11T08:33:45.194Z,22.83
2018-08-11T08:36:13.537Z,22.88
2018-08-11T08:38:41.962Z,22.93
2018-08-11T08:41:10.339Z,22.95
2018-08-11T08:43:38.751Z,23.00
2018-08-11T08:46:07.135Z,23.05
2018-08-11T08:48:35.542Z,23.05
2018-08-11T08:51:04.253Z,23.06
2018-08-11T08:53:32.650Z,23.13
2018-08-11T08:56:01.017Z,23.18
2018-08-11T08:58:29.437Z,23.24
2018-08-11T09:00:57.814Z,23.28
2018-08-11T09:03:26.210Z,23.31
2018-08-11T09:05:54.590Z,23.33
2018-08-11T09:08:22.992Z,23.38
2018-08-11T09:10:51.371Z,23.41
2018-08-11T09:13:19.803Z,23.41
2018-08-11T09:15:48.176Z,23.48
2018-08-11T09:18:16.599Z,23.50
2018-08-11T09:20:44.978Z,23.46
2018-08-11T09:23:13.377Z,23.46
2018-08-11T09:25:41.768Z,23.45
2018-08-11T09:28:10.172Z,23.41
2018-08-11T09:30:38.547Z,23.35
2018-08-11T09:33:07.016Z,23.34
2018-08-11T09:35:35.634Z,23.34
2018-08-11T09:38:04.050Z,23.33
2018-08-11T09:40:32.429Z,23.32
2018-08-11T09:43:00.836Z,23.27
2018-08-11T09:45:29.363Z,23.22
2018-08-11T09:47:57.762Z,23.11
2018-08-11T09:50:26.148Z,22.91
2018-08-11T09:52:54.551Z,22.69
2018-08-11T09:55:22.942Z,22.50
2018-08-11T09:57:51.355Z,22.35
2018-08-11T10:00:24.918Z,22.21
2018-08-11T10:02:53.678Z,22.15
2018-08-11T10:05:22.543Z,22.13
2018-08-11T10:07:50.947Z,22.13
2018-08-11T10:10:19.344Z,22.08
2018-08-11T10:12:47.738Z,22.03
2018-08-11T10:15:16.151Z,21.95
2018-08-11T10:17:44.522Z,21.88
2018-08-11T10:20:12.939Z,21.79
2018-08-11T10:22:41.315Z,21.72
2018-08-11T10:25:09.714Z,21.69
2018-08-11T10:27:38.091Z,21.65
2018-08-11T10:30:07.275Z,21.63
2018-08-11T10:32:35.651Z,21.61
2018-08-11T10:35:04.079Z,21.64
2018-08-11T10:37:32.462Z,21.60
2018-08-11T10:40:00.875Z,21.59
2018-08-11T10:42:29.295Z,21.57
2018-08-11T10:44:57.698Z,21.57
2018-08-11T10:47:26.079Z,21.63
2018-08-11T10:49:54.510Z,21.65
2018-08-11T10:52:22.885Z,21.75
2018-08-11T10:54:51.282Z,21.80
2018-08-11T10:57:19.663Z,21.81
2018-08-11T10:59:48.067Z,21.76
2018-08-11T11:02:16.591Z,21.74
2018-08-11T11:04:44.986Z,21.80
2018-08-11T11:07:13.363Z,21.83
2018-08-11T11:09:41.762Z,21.93
2018-08-11T11:12:10.309Z,22.02
2018-08-11T11:14:38.746Z,22.06
2018-08-11T11:17:07.118Z,22.08
2018-08-11T11:19:35.519Z,22.12
2018-08-11T11:22:03.898Z,22.21
2018-08-11T11:24:32.302Z,22.31
2018-08-11T11:27:00.682Z,22.39
2018-08-11T11:29:29.095Z,22.52
2018-08-11T11:31:57.469Z,22.56
2018-08-11T11:34:25.858Z,22.58
2018-08-11T11:36:54.410Z,22.61
2018-08-11T11:39:22.810Z,22.54
2018-08-11T11:41:51.199Z,22.47
2018-08-11T11:44:19.630Z,22.40
2018-08-11T11:46:48.004Z,22.35
2018-08-11T11:49:16.398Z,22.32
2018-08-11T11:51:44.773Z,22.35
2018-08-11T11:54:13.174Z,22.40
2018-08-11T11:56:41.551Z,22.47
2018-08-11T11:59:09.955Z,22.53
2018-08-11T12:01:38.399Z,22.63
2018-08-11T12:04:06.798Z,22.62
2018-08-11T12:06:35.171Z,22.69
2018-08-11T12:09:03.783Z,22.80
2018-08-11T12:11:32.166Z,22.90
2018-08-11T12:14:00.621Z,22.99
2018-08-11T12:16:28.996Z,23.13
2018-08-11T12:18:57.370Z,23.25
2018-08-11T12:21:25.762Z,23.42
2018-08-11T12:23:54.130Z,23.42
2018-08-11T12:26:22.541Z,23.50
2018-08-11T12:28:50.938Z,23.50
2018-08-11T12:31:19.404Z,23.43
2018-08-11T12:33:47.734Z,23.32
2018-08-11T12:36:16.136Z,23.18
2018-08-11T12:38:44.516Z,23.08
2018-08-11T12:41:13.206Z,23.01
2018-08-11T12:43:41.586Z,23.01
2018-08-11T12:46:09.983Z,23.02
2018-08-11T12:48:38.346Z,22.98
2018-08-11T12:51:06.743Z,22.87
2018-08-11T12:53:35.162Z,22.86
2018-08-11T12:56:03.530Z,22.86
2018-08-11T12:58:31.916Z,22.90
2018-08-11T13:01:00.551Z,22.91
2018-08-11T13:03:28.925Z,22.84
2018-08-11T13:05:57.339Z,22.89
2018-08-11T13:08:25.719Z,22.91
2018-08-11T13:10:54.116Z,22.99
2018-08-11T13:13:22.506Z,23.13
2018-08-11T13:15:50.910Z,23.26
2018-08-11T13:18:19.284Z,23.38
2018-08-11T13:20:47.731Z,23.53
2018-08-11T13:23:16.078Z,23.67
2018-08-11T13:25:44.474Z,23.81
2018-08-11T13:28:12.842Z,23.86
2018-08-11T13:30:41.243Z,23.93
2018-08-11T13:33:09.618Z,23.92
2018-08-11T13:35:38.167Z,23.93
2018-08-11T13:38:06.565Z,23.94
2018-08-11T13:40:34.958Z,23.91
2018-08-11T13:43:03.343Z,23.85
2018-08-11T13:45:31.746Z,23.79
2018-08-11T13:48:00.127Z,23.68
2018-08-11T13:50:28.523Z,23.60
2018-08-11T13:52:56.897Z,23.44
2018-08-11T13:55:25.299Z,23.20
2018-08-11T13:57:53.766Z,22.93
2018-08-11T14:00:22.178Z,22.69
2018-08-11T14:02:50.546Z,22.45
2018-08-11T14:05:19.530Z,22.21
2018-08-11T14:07:48.196Z,22.11
2018-08-11T14:10:16.598Z,22.03
2018-08-11T14:12:44.961Z,22.06
2018-08-11T14:15:13.391Z,22.06
2018-08-11T14:17:41.791Z,22.11
2018-08-11T14:20:10.848Z,22.18
2018-08-11T14:22:39.719Z,22.25
2018-08-11T14:25:08.695Z,22.29
2018-08-11T14:27:37.322Z,22.36
2018-08-11T14:30:08.096Z,22.40
2018-08-11T14:32:36.570Z,22.43
2018-08-11T14:35:05.203Z,22.49
2018-08-11T14:37:33.600Z,22.53
2018-08-11T14:40:01.978Z,22.58
2018-08-11T14:42:30.375Z,22.60
2018-08-11T14:44:58.759Z,22.63
2018-08-11T14:47:27.152Z,22.67
2018-08-11T14:49:55.531Z,22.71
2018-08-11T14:52:23.926Z,22.77
2018-08-11T14:54:52.299Z,22.84
2018-08-11T14:57:20.690Z,22.95
2018-08-11T14:59:49.063Z,23.05
2018-08-11T15:02:17.467Z,23.13
2018-08-11T15:04:45.842Z,23.13
2018-08-11T15:07:14.250Z,23.15
2018-08-11T15:09:42.659Z,23.16
2018-08-11T15:12:11.056Z,23.18
2018-08-11T15:14:39.462Z,23.16
2018-08-11T15:17:07.885Z,23.12
2018-08-11T15:19:36.258Z,23.12
2018-08-11T15:22:04.664Z,23.11
2018-08-11T15:24:33.038Z,23.06
2018-08-11T15:27:01.443Z,23.00
2018-08-11T15:29:29.831Z,22.90
2018-08-11T15:31:58.230Z,22.78
2018-08-11T15:34:26.611Z,22.69
2018-08-11T15:36:55.035Z,22.59
2018-08-11T15:39:23.431Z,22.49
2018-08-11T15:41:51.852Z,22.41
2018-08-11T15:44:20.227Z,22.31
2018-08-11T15:46:48.626Z,22.26
2018-08-11T15:49:17.007Z,22.20
2018-08-11T15:51:45.419Z,22.14
2018-08-11T15:54:13.801Z,22.08
2018-08-11T15:56:42.210Z,22.03
2018-08-11T15:59:10.578Z,21.97
2018-08-11T16:01:39.006Z,21.93
2018-08-11T16:04:07.422Z,21.91
2018-08-11T16:06:35.819Z,22.00
2018-08-11T16:09:05.878Z,22.09
2018-08-11T16:11:34.273Z,22.19
2018-08-11T16:14:02.931Z,22.29
2018-08-11T16:16:31.322Z,22.36
2018-08-11T16:19:00.687Z,22.36
2018-08-11T16:21:29.067Z,22.32
2018-08-11T16:23:57.507Z,22.27
2018-08-11T16:26:25.905Z,22.20
2018-08-11T16:28:54.302Z,22.12
2018-08-11T16:31:22.885Z,22.06
2018-08-11T16:33:51.279Z,21.98
2018-08-11T16:36:19.651Z,21.94
2018-08-11T16:38:48.082Z,21.91
2018-08-11T16:41:16.463Z,21.88
2018-08-11T16:43:44.867Z,21.83
2018-08-11T16:46:13.230Z,21.73
2018-08-11T16:48:41.636Z,21.72
2018-08-11T16:51:10.011Z,21.67
2018-08-11T16:53:38.407Z,21.83
2018-08-11T16:56:06.782Z,22.10
2018-08-11T16:58:35.178Z,22.42
2018-08-11T17:01:03.546Z,22.72
2018-08-11T17:03:31.941Z,22.80
2018-08-11T17:06:00.306Z,22.70
2018-08-11T17:08:28.698Z,22.50
2018-08-11T17:10:57.075Z,22.20
2018-08-11T17:13:25.485Z,21.89
2018-08-11T17:15:53.863Z,21.61
2018-08-11T17:18:22.254Z,21.34
2018-08-11T17:20:50.980Z,21.29
2018-08-11T17:23:19.319Z,21.47
2018-08-11T17:25:47.690Z,21.60
2018-08-11T17:28:16.082Z,21.65
2018-08-11T17:30:44.506Z,21.61
2018-08-11T17:33:13.014Z,21.49
2018-08-11T17:35:41.391Z,21.31
2018-08-11T17:38:09.799Z,21.14
2018-08-11T17:40:38.170Z,20.94
2018-08-11T17:43:06.723Z,20.75
2018-08-11T17:45:35.103Z,20.59
2018-08-11T17:48:03.535Z,20.44
2018-08-11T17:50:31.916Z,20.31
2018-08-11T17:53:00.310Z,20.19
2018-08-11T17:55:28.730Z,20.06
2018-08-11T17:57:57.198Z,19.96
2018-08-11T18:00:25.583Z,19.84
2018-08-11T18:02:53.974Z,19.74
2018-08-11T18:05:22.400Z,19.64
2018-08-11T18:07:50.806Z,19.55
2018-08-11T18:10:19.177Z,19.48
2018-08-11T18:12:47.599Z,19.40
2018-08-11T18:15:16.007Z,19.32
2018-08-11T18:17:44.407Z,19.25
2018-08-11T18:20:12.787Z,19.18
2018-08-11T18:22:41.184Z,19.14
2018-08-11T18:25:09.626Z,19.10
2018-08-11T18:27:38.002Z,19.07
2018-08-11T18:30:07.078Z,19.01
2018-08-11T18:32:35.454Z,18.98
2018-08-11T18:35:04.052Z,18.93
2018-08-11T18:37:32.434Z,18.92
2018-08-11T18:40:00.838Z,18.87
2018-08-11T18:42:29.206Z,18.86
2018-08-11T18:44:57.598Z,18.81
2018-08-11T18:47:25.968Z,18.77
2018-08-11T18:49:54.368Z,18.74
2018-08-11T18:52:22.753Z,18.70
2018-08-11T18:54:51.151Z,18.67
2018-08-11T18:57:19.534Z,18.64
2018-08-11T18:59:47.935Z,18.59
2018-08-11T19:02:16.314Z,18.55
2018-08-11T19:04:44.740Z,18.49
2018-08-11T19:07:13.444Z,18.45
2018-08-11T19:09:41.863Z,18.37
2018-08-11T19:12:10.250Z,18.32
2018-08-11T19:14:38.671Z,18.27
2018-08-11T19:17:07.071Z,18.23
2018-08-11T19:19:35.475Z,18.18
2018-08-11T19:22:03.981Z,18.10
2018-08-11T19:24:32.374Z,18.06
2018-08-11T19:27:00.745Z,18.01
2018-08-11T19:29:29.274Z,17.96
2018-08-11T19:31:57.642Z,17.92
2018-08-11T19:34:26.039Z,17.87
2018-08-11T19:36:54.417Z,17.84
2018-08-11T19:39:22.820Z,17.81
2018-08-11T19:41:51.195Z,17.78
2018-08-11T19:44:19.594Z,17.74
2018-08-11T19:46:47.975Z,17.69
2018-08-11T19:49:16.367Z,17.66
2018-08-11T19:51:44.733Z,17.64
2018-08-11T19:54:13.134Z,17.60
2018-08-11T19:56:41.507Z,17.57
2018-08-11T19:59:09.902Z,17.53
2018-08-11T20:01:38.418Z,17.47
2018-08-11T20:04:06.835Z,17.43
2018-08-11T20:06:35.210Z,17.38
2018-08-11T20:09:03.698Z,17.35
2018-08-11T20:11:32.074Z,17.32
2018-08-11T20:14:00.499Z,17.28
2018-08-11T20:16:28.902Z,17.24
2018-08-11T20:18:57.288Z,17.22
2018-08-11T20:21:25.706Z,17.18
2018-08-11T20:23:54.079Z,17.16
2018-08-11T20:26:22.508Z,17.12
2018-08-11T20:28:50.906Z,17.09
2018-08-11T20:31:19.303Z,17.04
2018-08-11T20:33:47.826Z,17.03
2018-08-11T20:36:16.221Z,16.99
2018-08-11T20:38:44.603Z,16.97
2018-08-11T20:41:13.004Z,16.95
2018-08-11T20:43:41.382Z,16.91
2018-08-11T20:46:09.947Z,16.88
2018-08-11T20:48:38.327Z,16.85
2018-08-11T20:51:06.767Z,16.85
2018-08-11T20:53:35.137Z,16.83
2018-08-11T20:56:03.554Z,16.81
2018-08-11T20:58:31.939Z,16.78
2018-08-11T21:01:00.987Z,16.74
2018-08-11T21:03:29.364Z,16.73
2018-08-11T21:05:57.766Z,16.71
2018-08-11T21:08:26.156Z,16.68
2018-08-11T21:10:54.551Z,16.66
2018-08-11T21:13:22.938Z,16.63
2018-08-11T21:15:51.340Z,16.61
2018-08-11T21:18:19.713Z,16.59
2018-08-11T21:20:48.117Z,16.58
2018-08-11T21:23:16.520Z,16.56
2018-08-11T21:25:44.946Z,16.55
2018-08-11T21:28:13.326Z,16.54
2018-08-11T21:30:41.727Z,16.51
2018-08-11T21:33:10.106Z,16.49
2018-08-11T21:35:38.509Z,16.48
2018-08-11T21:38:06.888Z,16.46
2018-08-11T21:40:35.291Z,16.43
2018-08-11T21:43:03.689Z,16.42
2018-08-11T21:45:32.091Z,16.40
2018-08-11T21:48:00.470Z,16.38
2018-08-11T21:50:28.875Z,16.35
2018-08-11T21:52:57.250Z,16.33
2018-08-11T21:55:25.650Z,16.30
2018-08-11T21:57:54.031Z,16.28
2018-08-11T22:00:29.418Z,16.25
2018-08-11T22:02:58.174Z,16.23
2018-08-11T22:05:27.083Z,16.19
2018-08-11T22:07:56.367Z,16.17
2018-08-11T22:10:24.778Z,16.15
2018-08-11T22:12:53.219Z,16.14
2018-08-11T22:15:21.819Z,16.13
2018-08-11T22:17:50.723Z,16.11
2018-08-11T22:20:19.596Z,16.09
2018-08-11T22:22:47.998Z,16.08
2018-08-11T22:25:16.394Z,16.06
2018-08-11T22:27:45.474Z,16.04
2018-08-11T22:30:13.854Z,16.02
2018-08-11T22:32:42.263Z,16.01
2018-08-11T22:35:12.119Z,15.98
2018-08-11T22:37:40.518Z,15.97
2018-08-11T22:40:09.126Z,15.96
2018-08-11T22:42:38.303Z,15.93
2018-08-11T22:45:09.723Z,15.94
2018-08-11T22:47:38.529Z,15.92
2018-08-11T22:50:08.699Z,15.90
2018-08-11T22:52:37.550Z,15.89
2018-08-11T22:55:06.218Z,15.88
2018-08-11T22:57:34.718Z,15.85
2018-08-11T23:00:03.144Z,15.83
2018-08-11T23:02:31.563Z,15.80
2018-08-11T23:04:59.943Z,15.77
2018-08-11T23:07:28.347Z,15.75
2018-08-11T23:09:56.742Z,15.73
2018-08-11T23:12:25.134Z,15.71
2018-08-11T23:14:53.530Z,15.69
2018-08-11T23:17:21.930Z,15.69
2018-08-11T23:19:50.306Z,15.67
2018-08-11T23:22:18.701Z,15.65
2018-08-11T23:24:47.083Z,15.63
2018-08-11T23:27:15.479Z,15.61
2018-08-11T23:29:43.856Z,15.60
2018-08-11T23:32:12.277Z,15.58
2018-08-11T23:34:40.658Z,15.54
2018-08-11T23:37:09.059Z,15.54
2018-08-11T23:39:37.438Z,15.51
2018-08-11T23:42:05.855Z,15.48
2018-08-11T23:44:34.230Z,15.46
2018-08-11T23:47:02.627Z,15.43
2018-08-11T23:49:31.005Z,15.41
2018-08-11T23:51:59.398Z,15.39
2018-08-11T23:54:27.809Z,15.38
2018-08-11T23:56:56.211Z,15.36
2018-08-11T23:59:24.599Z,15.33
